createdAt,value
2022-08-19T00:00:11.012Z,94.40
2022-08-19T00:02:50.034Z,94.40
2022-08-19T00:05:20.124Z,94.60
2022-08-19T00:07:47.360Z,94.70
2022-08-19T00:10:16.822Z,94.90
2022-08-19T00:12:46.944Z,95.20
2022-08-19T00:15:18.917Z,95.40
2022-08-19T00:17:47.222Z,95.50
2022-08-19T00:20:19.608Z,95.70
2022-08-19T00:22:48.897Z,96.00
2022-08-19T00:25:17.290Z,96.20
2022-08-19T00:27:44.827Z,96.40
2022-08-19T00:30:15.749Z,96.40
2022-08-19T00:32:42.880Z,96.70
2022-08-19T00:35:10.731Z,96.90
2022-08-19T00:37:39.047Z,97.10
2022-08-19T00:40:08.450Z,97.30
2022-08-19T00:42:35.534Z,97.50
2022-08-19T00:45:22.325Z,97.70
2022-08-19T00:47:49.689Z,97.80
2022-08-19T00:50:20.980Z,98.20
2022-08-19T00:52:52.226Z,98.70
2022-08-19T00:55:29.839Z,99.20
2022-08-19T00:58:06.005Z,99.60
2022-08-19T01:00:38.300Z,99.90
2022-08-19T01:03:13.091Z,99.90
2022-08-19T01:05:44.701Z,99.90
2022-08-19T01:08:13.235Z,99.90
2022-08-19T01:11:00.590Z,99.90
2022-08-19T01:13:44.501Z,99.90
2022-08-19T01:16:20.337Z,99.90
2022-08-19T01:18:48.057Z,99.90
2022-08-19T01:21:27.421Z,99.90
2022-08-19T01:23:54.739Z,99.90
2022-08-19T01:26:25.260Z,99.90
2022-08-19T01:28:59.597Z,99.90
2022-08-19T01:31:33.731Z,99.90
2022-08-19T01:34:02.539Z,99.90
2022-08-19T01:36:37.711Z,99.90
2022-08-19T01:39:09.992Z,99.90
2022-08-19T01:41:37.436Z,99.90
2022-08-19T01:44:18.081Z,99.90
2022-08-19T01:46:49.015Z,99.90
2022-08-19T01:49:21.197Z,99.90
2022-08-19T01:51:50.501Z,99.90
2022-08-19T01:54:22.904Z,99.90
2022-08-19T01:57:06.001Z,99.90
2022-08-19T01:59:34.097Z,99.90
2022-08-19T02:02:01.300Z,99.90
2022-08-19T02:04:28.451Z,99.90
2022-08-19T02:06:55.530Z,99.90
2022-08-19T02:09:22.738Z,99.90
2022-08-19T02:11:49.957Z,99.90
2022-08-19T02:14:16.983Z,99.90
2022-08-19T02:16:44.254Z,99.90
2022-08-19T02:19:11.622Z,99.90
2022-08-19T02:21:38.655Z,99.90
2022-08-19T02:24:06.310Z,99.90
2022-08-19T02:26:36.770Z,99.90
2022-08-19T02:29:04.528Z,99.90
2022-08-19T02:31:31.671Z,99.90
2022-08-19T02:33:59.311Z,99.90
2022-08-19T02:36:27.421Z,99.90
2022-08-19T02:38:55.940Z,99.90
2022-08-19T02:41:32.921Z,99.90
2022-08-19T02:44:30.664Z,99.90
2022-08-19T02:46:53.125Z,99.90
2022-08-19T02:49:20.803Z,99.90
2022-08-19T02:51:48.408Z,99.90
2022-08-19T02:54:16.854Z,99.90
2022-08-19T02:56:45.776Z,99.90
2022-08-19T02:59:13.384Z,99.90
2022-08-19T03:01:43.040Z,99.90
2022-08-19T03:04:13.979Z,99.90
2022-08-19T03:06:43.794Z,99.90
2022-08-19T03:09:15.055Z,99.90
2022-08-19T03:11:45.257Z,99.90
2022-08-19T03:14:13.854Z,99.90
2022-08-19T03:16:58.807Z,99.90
2022-08-19T03:19:25.960Z,99.90
2022-08-19T03:21:53.436Z,99.90
2022-08-19T03:24:21.504Z,99.90
2022-08-19T03:26:59.573Z,99.90
2022-08-19T03:29:30.753Z,99.90
2022-08-19T03:32:04.880Z,99.90
2022-08-19T03:34:35.223Z,99.90
2022-08-19T03:37:13.158Z,99.90
2022-08-19T03:39:42.766Z,99.90
2022-08-19T03:42:38.735Z,99.90
2022-08-19T03:44:59.366Z,99.90
2022-08-19T03:47:26.927Z,99.90
2022-08-19T03:49:54.146Z,99.90
2022-08-19T03:52:21.219Z,99.90
2022-08-19T03:54:48.401Z,99.90
2022-08-19T03:57:15.530Z,99.90
2022-08-19T03:59:42.676Z,99.90
2022-08-19T04:02:13.814Z,99.90
2022-08-19T04:04:44.302Z,99.90
2022-08-19T04:07:16.217Z,99.90
2022-08-19T04:09:43.442Z,99.90
2022-08-19T04:12:10.528Z,99.90
2022-08-19T04:14:37.819Z,99.90
2022-08-19T04:17:06.017Z,99.90
2022-08-19T04:19:36.341Z,99.90
2022-08-19T04:22:05.226Z,99.90
2022-08-19T04:24:36.333Z,99.90
2022-08-19T04:27:04.946Z,99.90
2022-08-19T04:29:32.346Z,99.90
2022-08-19T04:32:00.155Z,99.90
2022-08-19T04:34:36.041Z,99.90
2022-08-19T04:37:12.678Z,99.90
2022-08-19T04:40:02.535Z,99.90
2022-08-19T04:42:41.703Z,99.90
2022-08-19T04:45:14.624Z,99.90
2022-08-19T04:47:47.948Z,99.90
2022-08-19T04:50:29.132Z,99.90
2022-08-19T04:52:56.800Z,99.90
2022-08-19T04:55:26.659Z,99.90
2022-08-19T04:57:55.401Z,99.90
2022-08-19T05:00:22.850Z,99.90
2022-08-19T05:02:50.228Z,99.90
2022-08-19T05:05:18.286Z,99.90
2022-08-19T05:07:45.392Z,99.90
2022-08-19T05:10:13.784Z,99.90
2022-08-19T05:12:41.041Z,99.90
2022-08-19T05:15:12.114Z,99.90
2022-08-19T05:17:59.381Z,99.90
2022-08-19T05:20:59.025Z,99.90
2022-08-19T05:23:29.664Z,99.90
2022-08-19T05:25:59.820Z,99.90
2022-08-19T05:28:27.158Z,99.90
2022-08-19T05:30:56.486Z,99.90
2022-08-19T05:33:26.810Z,99.90
2022-08-19T05:35:54.045Z,99.90
2022-08-19T05:38:21.285Z,99.90
2022-08-19T05:40:50.386Z,99.90
2022-08-19T05:43:17.904Z,99.90
2022-08-19T05:45:46.576Z,99.90
2022-08-19T05:48:14.780Z,99.90
2022-08-19T05:50:43.193Z,99.90
2022-08-19T05:53:10.427Z,99.90
2022-08-19T05:55:39.575Z,99.90
2022-08-19T05:58:08.636Z,99.90
2022-08-19T06:00:38.420Z,99.90
2022-08-19T06:03:11.392Z,99.90
2022-08-19T06:05:51.756Z,99.90
2022-08-19T06:08:33.808Z,99.90
2022-08-19T06:11:22.862Z,99.90
2022-08-19T06:13:59.641Z,99.90
2022-08-19T06:16:28.988Z,99.90
2022-08-19T06:19:01.450Z,99.90
2022-08-19T06:21:31.805Z,99.90
2022-08-19T06:24:00.630Z,99.90
2022-08-19T06:26:28.598Z,99.90
2022-08-19T06:28:59.027Z,99.90
2022-08-19T06:31:34.719Z,99.90
2022-08-19T06:34:04.733Z,99.90
2022-08-19T06:36:41.627Z,99.90
2022-08-19T06:39:17.085Z,99.90
2022-08-19T06:41:52.426Z,99.90
2022-08-19T06:44:25.011Z,99.90
2022-08-19T06:46:55.103Z,99.90
2022-08-19T06:49:23.764Z,99.90
2022-08-19T06:51:54.272Z,99.90
2022-08-19T06:54:21.849Z,99.90
2022-08-19T06:56:51.331Z,99.90
2022-08-19T06:59:28.624Z,99.90
2022-08-19T07:01:57.736Z,99.90
2022-08-19T07:04:31.276Z,99.90
2022-08-19T07:07:21.067Z,99.90
2022-08-19T07:09:51.776Z,99.90
2022-08-19T07:12:36.127Z,99.90
2022-08-19T07:15:09.522Z,99.90
2022-08-19T07:17:38.360Z,99.90
2022-08-19T07:20:11.012Z,99.90
2022-08-19T07:22:40.252Z,99.90
2022-08-19T07:25:11.053Z,99.90
2022-08-19T07:27:39.747Z,99.90
2022-08-19T07:30:12.052Z,99.90
2022-08-19T07:32:40.293Z,99.90
2022-08-19T07:35:08.899Z,99.90
2022-08-19T07:37:38.141Z,99.90
2022-08-19T07:40:08.356Z,99.90
2022-08-19T07:42:35.594Z,99.90
2022-08-19T07:45:03.448Z,99.90
2022-08-19T07:47:47.469Z,99.90
2022-08-19T07:50:20.862Z,99.90
2022-08-19T07:52:50.799Z,99.90
2022-08-19T07:55:41.603Z,99.90
2022-08-19T07:58:17.347Z,99.90
2022-08-19T08:00:47.825Z,99.90
2022-08-19T08:03:18.286Z,99.90
2022-08-19T08:06:04.820Z,99.90
2022-08-19T08:08:56.195Z,99.90
2022-08-19T08:11:25.445Z,99.90
2022-08-19T08:14:00.388Z,99.90
2022-08-19T08:16:32.278Z,99.90
2022-08-19T08:19:00.299Z,99.90
2022-08-19T08:21:28.482Z,99.90
2022-08-19T08:23:56.806Z,99.90
2022-08-19T08:26:27.934Z,99.90
2022-08-19T08:28:55.688Z,99.90
2022-08-19T08:31:23.134Z,99.90
2022-08-19T08:33:50.765Z,99.90
2022-08-19T08:36:18.202Z,99.90
2022-08-19T08:38:46.850Z,99.90
2022-08-19T08:41:22.532Z,99.90
2022-08-19T08:43:53.974Z,99.90
2022-08-19T08:47:05.690Z,99.90
2022-08-19T08:49:51.370Z,99.90
2022-08-19T08:52:46.515Z,99.90
2022-08-19T08:55:20.467Z,99.90
2022-08-19T08:57:51.715Z,99.90
2022-08-19T09:00:29.879Z,99.90
2022-08-19T09:03:02.904Z,99.90
2022-08-19T09:06:17.458Z,99.90
2022-08-19T09:09:11.754Z,99.90
2022-08-19T09:12:03.819Z,99.90
2022-08-19T09:14:50.839Z,99.90
2022-08-19T09:17:25.977Z,99.90
2022-08-19T09:20:20.378Z,99.90
2022-08-19T09:22:49.952Z,99.60
2022-08-19T09:25:24.736Z,99.80
2022-08-19T09:28:03.077Z,99.70
2022-08-19T09:30:43.522Z,98.70
2022-08-19T09:33:14.068Z,98.50
2022-08-19T09:35:49.964Z,97.20
2022-08-19T09:38:22.538Z,97.30
2022-08-19T09:40:50.825Z,96.80
2022-08-19T09:43:27.780Z,97.10
2022-08-19T09:46:02.451Z,96.50
2022-08-19T09:48:29.934Z,96.40
2022-08-19T09:51:09.080Z,95.60
2022-08-19T09:53:44.959Z,96.40
2022-08-19T09:56:13.512Z,96.10
2022-08-19T09:58:41.681Z,95.80
2022-08-19T10:01:10.001Z,94.80
2022-08-19T10:03:37.956Z,94.50
2022-08-19T10:06:14.936Z,94.80
2022-08-19T10:08:50.195Z,94.60
2022-08-19T10:11:27.457Z,93.90
2022-08-19T10:14:02.737Z,93.80
2022-08-19T10:16:30.591Z,93.20
2022-08-19T10:18:58.969Z,93.50
2022-08-19T10:21:33.028Z,93.30
2022-08-19T10:24:05.270Z,93.50
2022-08-19T10:26:38.726Z,93.30
2022-08-19T10:29:09.285Z,92.70
2022-08-19T10:32:00.394Z,93.30
2022-08-19T10:34:28.407Z,92.80
2022-08-19T10:37:01.200Z,93.10
2022-08-19T10:39:33.000Z,90.80
2022-08-19T10:42:14.332Z,92.20
2022-08-19T10:44:42.664Z,92.20
2022-08-19T10:47:24.350Z,90.20
2022-08-19T10:50:14.594Z,89.90
2022-08-19T10:52:49.612Z,90.50
2022-08-19T10:55:42.684Z,90.00
2022-08-19T10:58:26.365Z,90.60
2022-08-19T11:01:00.030Z,91.40
2022-08-19T11:03:30.421Z,90.80
2022-08-19T11:06:07.781Z,91.20
2022-08-19T11:08:38.573Z,90.60
2022-08-19T11:11:08.035Z,90.40
2022-08-19T11:13:39.432Z,90.90
2022-08-19T11:16:27.100Z,93.80
2022-08-19T11:18:59.341Z,98.50
2022-08-19T11:21:34.846Z,99.90
2022-08-19T11:24:07.667Z,99.90
2022-08-19T11:26:35.818Z,98.90
2022-08-19T11:29:04.354Z,99.90
2022-08-19T11:31:37.254Z,99.90
2022-08-19T11:34:07.428Z,99.90
2022-08-19T11:36:38.142Z,99.90
2022-08-19T11:39:08.004Z,99.90
2022-08-19T11:41:35.499Z,99.90
2022-08-19T11:44:04.261Z,99.90
2022-08-19T11:46:32.345Z,99.90
2022-08-19T11:49:01.664Z,99.90
2022-08-19T11:51:33.116Z,99.90
2022-08-19T11:54:01.366Z,99.90
2022-08-19T11:56:31.922Z,99.90
2022-08-19T11:59:02.721Z,99.90
2022-08-19T12:01:30.470Z,99.90
2022-08-19T12:04:01.248Z,99.90
2022-08-19T12:06:35.059Z,99.90
2022-08-19T12:09:09.622Z,99.90
2022-08-19T12:11:41.501Z,99.90
2022-08-19T12:14:15.208Z,99.90
2022-08-19T12:16:48.598Z,99.90
2022-08-19T12:19:22.217Z,99.90
2022-08-19T12:21:50.516Z,99.90
2022-08-19T12:24:24.405Z,99.90
2022-08-19T12:26:53.015Z,99.90
2022-08-19T12:29:23.851Z,99.90
2022-08-19T12:31:52.234Z,99.90
2022-08-19T12:34:20.986Z,99.90
2022-08-19T12:36:50.431Z,99.90
2022-08-19T12:39:17.905Z,99.90
2022-08-19T12:41:54.145Z,99.40
2022-08-19T12:44:28.861Z,99.90
2022-08-19T12:46:57.869Z,99.60
2022-08-19T12:49:44.429Z,99.50
2022-08-19T12:52:16.450Z,99.40
2022-08-19T12:54:45.495Z,99.00
2022-08-19T12:57:12.831Z,99.90
2022-08-19T12:59:40.398Z,99.90
2022-08-19T13:02:09.171Z,99.90
2022-08-19T13:04:38.884Z,99.90
2022-08-19T13:07:06.029Z,99.90
2022-08-19T13:09:33.341Z,99.90
2022-08-19T13:12:03.568Z,99.90
2022-08-19T13:14:32.396Z,99.90
2022-08-19T13:17:03.954Z,99.90
2022-08-19T13:19:32.560Z,99.90
2022-08-19T13:22:02.890Z,99.90
2022-08-19T13:24:34.159Z,99.90
2022-08-19T13:27:02.588Z,99.90
2022-08-19T13:29:48.667Z,99.50
2022-08-19T13:32:34.769Z,98.40
2022-08-19T13:35:04.090Z,98.10
2022-08-19T13:37:43.699Z,98.00
2022-08-19T13:40:21.114Z,98.60
2022-08-19T13:42:55.659Z,98.30
2022-08-19T13:45:33.730Z,97.20
2022-08-19T13:48:02.657Z,97.50
2022-08-19T13:50:32.494Z,99.40
2022-08-19T13:53:00.383Z,98.00
2022-08-19T13:55:28.039Z,97.80
2022-08-19T13:57:58.840Z,98.50
2022-08-19T14:00:32.708Z,99.20
2022-08-19T14:03:00.184Z,99.90
2022-08-19T14:05:32.662Z,99.90
2022-08-19T14:08:03.221Z,99.90
2022-08-19T14:10:32.536Z,99.90
2022-08-19T14:13:02.334Z,99.90
2022-08-19T14:15:39.178Z,99.90
2022-08-19T14:18:06.317Z,99.90
2022-08-19T14:20:37.094Z,99.90
2022-08-19T14:23:06.681Z,99.90
2022-08-19T14:25:35.067Z,99.90
2022-08-19T14:28:05.232Z,99.90
2022-08-19T14:30:38.772Z,99.90
2022-08-19T14:33:09.562Z,99.90
2022-08-19T14:35:37.755Z,99.90
2022-08-19T14:38:06.687Z,99.90
2022-08-19T14:40:35.640Z,99.90
2022-08-19T14:43:06.128Z,99.90
2022-08-19T14:45:39.315Z,99.90
2022-08-19T14:48:19.057Z,99.90
2022-08-19T14:50:47.412Z,99.90
2022-08-19T14:53:14.593Z,99.90
2022-08-19T14:55:47.100Z,99.90
2022-08-19T14:58:28.387Z,99.40
2022-08-19T15:01:04.234Z,99.70
2022-08-19T15:03:32.688Z,99.90
2022-08-19T15:06:02.354Z,99.60
2022-08-19T15:08:32.237Z,99.50
2022-08-19T15:11:00.234Z,99.40
2022-08-19T15:13:29.229Z,99.10
2022-08-19T15:15:58.095Z,98.10
2022-08-19T15:18:25.609Z,97.80
2022-08-19T15:20:52.877Z,98.40
2022-08-19T15:23:21.975Z,97.50
2022-08-19T15:25:49.696Z,97.30
2022-08-19T15:28:17.388Z,94.20
2022-08-19T15:30:44.975Z,94.80
2022-08-19T15:33:15.395Z,94.30
2022-08-19T15:35:43.625Z,94.70
2022-08-19T15:38:14.827Z,93.90
2022-08-19T15:40:42.816Z,92.90
2022-08-19T15:43:10.035Z,93.90
2022-08-19T15:45:37.126Z,93.80
2022-08-19T15:48:05.244Z,93.00
2022-08-19T15:50:35.971Z,93.40
2022-08-19T15:53:11.188Z,94.00
2022-08-19T15:55:45.495Z,93.50
2022-08-19T15:58:34.268Z,93.10
2022-08-19T16:01:26.995Z,93.30
2022-08-19T16:04:16.058Z,93.10
2022-08-19T16:06:50.676Z,93.50
2022-08-19T16:09:24.945Z,92.80
2022-08-19T16:11:56.944Z,93.50
2022-08-19T16:14:25.793Z,92.60
2022-08-19T16:16:55.821Z,93.10
2022-08-19T16:19:23.568Z,92.20
2022-08-19T16:21:53.713Z,92.10
2022-08-19T16:24:27.754Z,92.60
2022-08-19T16:26:55.980Z,92.10
2022-08-19T16:29:33.674Z,93.00
2022-08-19T16:32:11.868Z,92.00
2022-08-19T16:34:41.434Z,92.40
2022-08-19T16:37:10.165Z,92.60
2022-08-19T16:39:37.405Z,92.70
2022-08-19T16:42:09.653Z,93.50
2022-08-19T16:44:41.389Z,93.00
2022-08-19T16:47:08.563Z,93.40
2022-08-19T16:49:53.027Z,93.80
2022-08-19T16:52:26.254Z,93.90
2022-08-19T16:54:53.832Z,93.00
2022-08-19T16:57:23.814Z,92.40
2022-08-19T16:59:52.400Z,92.40
2022-08-19T17:02:23.357Z,91.80
2022-08-19T17:04:57.570Z,92.00
2022-08-19T17:07:33.261Z,92.20
2022-08-19T17:10:04.531Z,92.40
2022-08-19T17:12:32.533Z,93.00
2022-08-19T17:15:02.573Z,93.80
2022-08-19T17:17:31.477Z,93.90
2022-08-19T17:20:00.692Z,93.90
2022-08-19T17:22:28.864Z,93.80
2022-08-19T17:24:58.118Z,93.70
2022-08-19T17:27:32.066Z,93.70
2022-08-19T17:30:04.764Z,93.60
2022-08-19T17:32:34.895Z,94.00
2022-08-19T17:35:06.191Z,93.80
2022-08-19T17:37:35.355Z,94.00
2022-08-19T17:40:06.632Z,94.20
2022-08-19T17:42:40.108Z,94.20
2022-08-19T17:45:11.249Z,94.50
2022-08-19T17:47:39.973Z,94.60
2022-08-19T17:50:10.929Z,94.90
2022-08-19T17:52:41.096Z,95.00
2022-08-19T17:55:12.002Z,95.50
2022-08-19T17:57:55.470Z,95.70
2022-08-19T18:00:23.325Z,95.90
2022-08-19T18:03:02.969Z,96.10
2022-08-19T18:05:40.061Z,96.50
2022-08-19T18:08:09.114Z,97.00
2022-08-19T18:10:40.356Z,97.40
2022-08-19T18:13:17.096Z,97.90
2022-08-19T18:15:45.467Z,98.40
2022-08-19T18:18:15.522Z,98.80
2022-08-19T18:20:44.312Z,99.10
2022-08-19T18:23:45.339Z,99.60
2022-08-19T18:25:58.762Z,99.80
2022-08-19T18:28:25.974Z,99.90
2022-08-19T18:30:53.243Z,99.90
2022-08-19T18:33:20.941Z,99.90
2022-08-19T18:35:52.069Z,99.90
2022-08-19T18:38:40.774Z,99.90
2022-08-19T18:41:27.333Z,99.90
2022-08-19T18:44:13.331Z,99.90
2022-08-19T18:46:58.789Z,99.90
2022-08-19T18:49:31.583Z,99.90
2022-08-19T18:51:59.929Z,99.90
2022-08-19T18:54:29.416Z,99.90
2022-08-19T18:56:56.787Z,99.90
2022-08-19T18:59:26.897Z,99.90
2022-08-19T19:01:59.874Z,99.90
2022-08-19T19:04:35.691Z,99.90
2022-08-19T19:07:08.844Z,99.90
2022-08-19T19:09:37.542Z,99.90
2022-08-19T19:12:10.364Z,99.90
2022-08-19T19:14:49.355Z,99.90
2022-08-19T19:17:17.199Z,99.90
2022-08-19T19:19:45.227Z,99.90
2022-08-19T19:22:17.562Z,99.90
2022-08-19T19:24:48.252Z,99.90
2022-08-19T19:27:20.731Z,99.90
2022-08-19T19:29:52.260Z,99.90
2022-08-19T19:32:36.925Z,99.90
2022-08-19T19:35:08.079Z,99.90
2022-08-19T19:37:35.385Z,99.90
2022-08-19T19:40:02.753Z,99.90
2022-08-19T19:42:30.130Z,99.90
2022-08-19T19:44:57.506Z,99.90
2022-08-19T19:47:33.961Z,99.90
2022-08-19T19:50:17.825Z,99.90
2022-08-19T19:52:46.611Z,99.90
2022-08-19T19:55:18.584Z,99.90
2022-08-19T19:57:49.851Z,99.90
2022-08-19T20:00:21.565Z,99.90
2022-08-19T20:02:54.168Z,99.90
2022-08-19T20:05:22.320Z,99.90
2022-08-19T20:08:11.643Z,99.90
2022-08-19T20:10:41.256Z,99.90
2022-08-19T20:13:10.965Z,99.90
2022-08-19T20:15:43.558Z,99.90
2022-08-19T20:18:14.378Z,99.90
2022-08-19T20:20:50.154Z,99.90
2022-08-19T20:23:21.651Z,99.90
2022-08-19T20:25:50.365Z,99.90
2022-08-19T20:28:18.195Z,99.90
2022-08-19T20:30:47.533Z,99.90
2022-08-19T20:33:15.409Z,99.90
2022-08-19T20:35:44.828Z,99.90
2022-08-19T20:38:12.301Z,99.90
2022-08-19T20:40:40.143Z,99.90
2022-08-19T20:43:12.945Z,99.90
2022-08-19T20:45:40.200Z,99.90
2022-08-19T20:48:10.598Z,99.90
2022-08-19T20:50:38.306Z,99.90
2022-08-19T20:53:15.208Z,99.90
2022-08-19T20:55:49.178Z,99.90
2022-08-19T20:58:21.211Z,99.90
2022-08-19T21:00:54.889Z,99.90
2022-08-19T21:03:26.537Z,99.90
2022-08-19T21:05:54.825Z,99.90
2022-08-19T21:08:23.127Z,99.90
2022-08-19T21:10:52.469Z,99.90
2022-08-19T21:13:20.869Z,99.90
2022-08-19T21:15:48.913Z,99.90
2022-08-19T21:18:19.902Z,99.90
2022-08-19T21:20:48.772Z,99.90
2022-08-19T21:23:23.997Z,99.90
2022-08-19T21:25:56.481Z,99.90
2022-08-19T21:28:35.066Z,99.90
2022-08-19T21:31:05.806Z,99.90
2022-08-19T21:33:33.041Z,99.90
2022-08-19T21:36:00.916Z,99.90
2022-08-19T21:38:28.116Z,99.90
2022-08-19T21:40:56.071Z,99.90
2022-08-19T21:43:26.149Z,99.90
2022-08-19T21:45:53.257Z,99.90
2022-08-19T21:48:20.376Z,99.90
2022-08-19T21:50:48.500Z,99.90
2022-08-19T21:53:19.428Z,99.90
2022-08-19T21:55:56.808Z,99.90
2022-08-19T21:58:28.273Z,99.90
2022-08-19T22:01:01.761Z,99.90
2022-08-19T22:03:29.367Z,99.90
2022-08-19T22:05:56.507Z,99.90
2022-08-19T22:08:23.734Z,99.90
2022-08-19T22:10:51.273Z,99.90
2022-08-19T22:13:20.229Z,99.90
2022-08-19T22:15:53.095Z,99.90
2022-08-19T22:18:20.349Z,99.90
2022-08-19T22:20:48.384Z,99.90
2022-08-19T22:23:15.513Z,99.90
2022-08-19T22:25:47.120Z,99.90
2022-08-19T22:28:19.163Z,99.90
2022-08-19T22:30:56.037Z,99.90
2022-08-19T22:33:24.214Z,99.90
2022-08-19T22:35:52.569Z,99.90
2022-08-19T22:38:23.571Z,99.90
2022-08-19T22:40:52.549Z,99.90
2022-08-19T22:43:30.252Z,99.90
2022-08-19T22:45:58.858Z,99.90
2022-08-19T22:48:29.167Z,99.90
2022-08-19T22:51:18.681Z,99.90
2022-08-19T22:53:47.491Z,99.90
2022-08-19T22:56:18.537Z,99.90
2022-08-19T22:58:47.219Z,99.90
2022-08-19T23:01:29.830Z,99.90
2022-08-19T23:03:59.507Z,99.90
2022-08-19T23:06:33.881Z,99.90
2022-08-19T23:09:05.181Z,99.90
2022-08-19T23:11:41.656Z,99.90
2022-08-19T23:14:12.502Z,99.90
2022-08-19T23:16:41.702Z,99.90
2022-08-19T23:19:10.381Z,99.90
2022-08-19T23:21:40.144Z,99.90
2022-08-19T23:24:07.921Z,99.90
2022-08-19T23:26:36.309Z,99.90
2022-08-19T23:29:24.261Z,99.90
2022-08-19T23:31:51.550Z,99.90
2022-08-19T23:34:18.663Z,99.90
2022-08-19T23:36:46.352Z,99.90
2022-08-19T23:39:13.446Z,99.90
2022-08-19T23:41:40.602Z,99.90
2022-08-19T23:44:12.568Z,99.90
2022-08-19T23:46:54.640Z,99.90
2022-08-19T23:49:22.007Z,99.90
2022-08-19T23:51:54.498Z,99.90
2022-08-19T23:54:22.102Z,99.90
2022-08-19T23:57:01.425Z,99.90
2022-08-19T23:59:28.553Z,99.90
